Terminal Aerodrome Forecast
Issued by NWS Twin Cities, MN

Home | Current Version | Previous Version | Graphics & Text | Print | Product List | Glossary On
Versions: 1 2 3 4 5 6 7 8 9 10 11 12 13 14 15 16 17 18 19 20 21 22 23 24 25 26
000
FTUS43 KMPX 202300
TAFMSP
TAF
KMSP 202333Z 2100/2206 33012KT P6SM SCT050 OVC080
     FM210200 30012G18KT P6SM SCT040 BKN090
     FM210600 31010KT P6SM SCT030
     FM211300 33012G19KT P6SM BKN030
     FM211700 34012G18KT P6SM BKN045=

USA.gov is the U.S. government's official web portal to all federal, state and local government web resources and services.